Terminal Aerodrome Forecast
Issued by NWS

Home | Current Version | Previous Version | Text Only | Print | Product List | Glossary Off
Versions: 1 2 3 4 5 6 7 8 9 10 11 12 13 14 15 16 17 18 19 20 21 22 23 24 25 26 27 28 29 30 31 32 33 34 35

000
FTUS43 KLOT 012154 AAB
TAFMDW
TAF AMD
KMDW 012154Z 0122/0218 26013G21KT P6SM BKN070
     FM020000 26010G15KT P6SM SCT080
     FM020130 26008KT P6SM SCT200
     FM020900 23011KT P6SM SCT060 BKN200
     FM021500 23014G24KT P6SM VCSH SCT060 BKN100 PROB30 0216/0218
      4SM -TSRA BKN040CB=

USA.gov is the U.S. government's official web portal to all federal, state and local government web resources and services.